| time (UTC) | temp F | wind direction | speed MPH | gust MPH | rain 1hr in | rain 24hr in | rain mn in | humidity % | barometer mb |
| 20260902095608 | 74 | 0.0 | 0.0 | 0.00 | 0.00 | 0.00 | 56 | 1023.2 | |
| 20260902094010 | 76 | 0.0 | 0.0 | 0.00 | 0.00 | 0.00 | 51 | 1023.7 | |
| 20260902092416 | 77 | 0.0 | 0.0 | 0.00 | 0.00 | 0.00 | 51 | 1023.1 | |
| 20260902092414 | 77 | 0.0 | 0.0 | 0.00 | 0.00 | 0.00 | 51 | 1023.1 | |
| 20260902090815 | 76 | 0.0 | 0.0 | 0.00 | 0.00 | 0.00 | 51 | 1023.4 | |
| 20260902085216 | 74 | 0.0 | 0.0 | 0.00 | 0.00 | 0.00 | 54 | 1023.6 | |
| 20260902083619 | 75 | 0.0 | 0.0 | 0.00 | 0.00 | 0.00 | 53 | 1023.3 | |
| 20260902082020 | 76 | 0.0 | 0.0 | 0.00 | 0.00 | 0.00 | 54 | 1023.2 | |
| 20260902080423 | 77 | 0.0 | 0.0 | 0.00 | 0.00 | 0.00 | 52 | 1022.9 | |
| 20260902074824 | 70 | 0.0 | 0.0 | 0.00 | 0.00 | 0.00 | 62 | 1023.0 | |
| 20260902073226 | 72 | 0.0 | 0.0 | 0.00 | 0.00 | 0.00 | 61 | 1022.1 | |
| 20260902071628 | 67 | 0.0 | 0.0 | 0.00 | 0.00 | 0.00 | 68 | 1022.2 | |
| 20260902070031 | 67 | 0.0 | 0.0 | 0.00 | 0.00 | 0.00 | 68 | 1021.8 | |
| 20260902064432 | 66 | 0.0 | 0.0 | 0.00 | 0.00 | 0.00 | 69 | 1021.9 | |
| 20260902062942 | 65 | 0.0 | 0.0 | 0.00 | 0.00 | 0.00 | 70 | 1021.9 | |
| 20260902062834 | 65 | 0.0 | 0.0 | 0.00 | 0.00 | 0.00 | 70 | 1021.9 | |
| 20260902061239 | 65 | 0.0 | 0.0 | 0.00 | 0.00 | 0.00 | 70 | 1021.8 | |
| 20260902061237 | 65 | 0.0 | 0.0 | 0.00 | 0.00 | 0.00 | 70 | 1021.8 | |
| 20260902055640 | 64 | 0.0 | 0.0 | 0.00 | 0.00 | 0.00 | 71 | 1022.2 | |
| 20260902055638 | 64 | 0.0 | 0.0 | 0.00 | 0.00 | 0.00 | 71 | 1022.2 | |
| 20260902054040 | 65 | 0.0 | 0.0 | 0.00 | 0.00 | 0.00 | 69 | 1021.9 | |
| 20260902052442 | 65 | 0.0 | 0.0 | 0.00 | 0.00 | 0.00 | 70 | 1021.9 | |
| 20260902050844 | 65 | 0.0 | 0.0 | 0.00 | 0.00 | 0.00 | 70 | 1022.0 | |
| 20260902045246 | 64 | 0.0 | 0.0 | 0.00 | 0.00 | 0.00 | 72 | 1021.5 | |
| 20260902043648 | 63 | 0.0 | 0.0 | 0.00 | 0.00 | 0.00 | 74 | 1021.4 | |
| 20260902042050 | 60 | 0.0 | 0.0 | 0.00 | 0.00 | 0.00 | 78 | 1022.2 | |
| 20260902040452 | 65 | 0.0 | 0.0 | 0.00 | 0.00 | 0.00 | 71 | 1021.3 | |
| 20260902034854 | 63 | 0.0 | 0.0 | 0.00 | 0.00 | 0.00 | 74 | 1021.5 | |
| 20260902033256 | 65 | 0.0 | 0.0 | 0.00 | 0.00 | 0.00 | 72 | 1021.4 | |
| 20260902031658 | 64 | 0.0 | 0.0 | 0.00 | 0.00 | 0.00 | 72 | 1021.4 | |
| 20260902030100 | 66 | 0.0 | 0.0 | 0.00 | 0.00 | 0.00 | 70 | 1021.1 | |
| 20260902024502 | 64 | 0.0 | 0.0 | 0.00 | 0.00 | 0.00 | 75 | 1021.0 | |
| 20260902022904 | 64 | 0.0 | 0.0 | 0.00 | 0.00 | 0.00 | 74 | 1021.3 | |
| 20260902021306 | 63 | 0.0 | 0.0 | 0.00 | 0.00 | 0.00 | 75 | 1021.5 | |
| 20260902015708 | 64 | 0.0 | 0.0 | 0.00 | 0.00 | 0.00 | 74 | 1021.1 | |
| 20260902014110 | 62 | 0.0 | 0.0 | 0.00 | 0.00 | 0.00 | 78 | 1021.7 | |
| 20260902012631 | 65 | 0.0 | 0.0 | 0.00 | 0.00 | 0.00 | 72 | 1021.3 | |
| 20260902012511 | 65 | 0.0 | 0.0 | 0.00 | 0.00 | 0.00 | 72 | 1021.3 | |
| 20260902010914 | 67 | 0.0 | 0.0 | 0.00 | 0.00 | 0.00 | 69 | 1021.3 | |
| 20260902005317 | 65 | 0.0 | 0.0 | 0.00 | 0.00 | 0.00 | 72 | 1021.4 | |
| 20260902003719 | 66 | 0.0 | 0.0 | 0.00 | 0.00 | 0.00 | 70 | 1021.2 | |
| 20260902002119 | 64 | 0.0 | 0.0 | 0.00 | 0.00 | 0.00 | 74 | 1021.4 | |
| 20260902000523 | 64 | 0.0 | 0.0 | 0.00 | 0.00 | 0.00 | 75 | 1021.4 | |
| 20260901234925 | 65 | 0.0 | 0.0 | 0.00 | 0.00 | 0.00 | 74 | 1021.1 | |
| 20260901233325 | 66 | 0.0 | 0.0 | 0.00 | 0.00 | 0.00 | 71 | 1021.1 | |
| 20260901231733 | 64 | 0.0 | 0.0 | 0.00 | 0.00 | 0.00 | 74 | 1021.5 | |
| 20260901231728 | 64 | 0.0 | 0.0 | 0.00 | 0.00 | 0.00 | 74 | 1021.5 | |
| 20260901230212 | 65 | 0.0 | 0.0 | 0.00 | 0.00 | 0.00 | 73 | 1021.5 | |
| 20260901230130 | 65 | 0.0 | 0.0 | 0.00 | 0.00 | 0.00 | 73 | 1021.5 | |
| 20260901224532 | 64 | 0.0 | 0.0 | 0.00 | 0.00 | 0.00 | 73 | 1021.8 | |
| 20260901222933 | 71 | 0.0 | 0.0 | 0.00 | 0.00 | 0.00 | 63 | 1021.4 | |
| 20260901221336 | 68 | 0.0 | 0.0 | 0.00 | 0.00 | 0.00 | 69 | 1021.0 | |
| 20260901215738 | 67 | 0.0 | 0.0 | 0.00 | 0.00 | 0.00 | 69 | 1021.4 | |
| 20260901214140 | 73 | 0.0 | 0.0 | 0.00 | 0.00 | 0.00 | 60 | 1021.0 | |
| 20260901212542 | 69 | 0.0 | 0.0 | 0.00 | 0.00 | 0.00 | 66 | 1021.3 | |
| 20260901210944 | 71 | 0.0 | 0.0 | 0.00 | 0.00 | 0.00 | 62 | 1021.3 | |
| 20260901205347 | 68 | 0.0 | 0.0 | 0.00 | 0.00 | 0.00 | 67 | 1021.7 | |
| 20260901203749 | 71 | 0.0 | 0.0 | 0.00 | 0.00 | 0.00 | 61 | 1021.8 | |
| 20260901202150 | 69 | 0.0 | 0.0 | 0.00 | 0.00 | 0.00 | 64 | 1021.9 | |
| 20260901200552 | 71 | 0.0 | 0.0 | 0.00 | 0.00 | 0.00 | 61 | 1021.8 | |
| 20260901194956 | 70 | 0.0 | 0.0 | 0.00 | 0.00 | 0.00 | 62 | 1021.9 | |
| 20260901193357 | 70 | 0.0 | 0.0 | 0.00 | 0.00 | 0.00 | 63 | 1022.0 | |
| 20260901191802 | 71 | 0.0 | 0.0 | 0.00 | 0.00 | 0.00 | 60 | 1021.8 | |
| 20260901191758 | 71 | 0.0 | 0.0 | 0.00 | 0.00 | 0.00 | 60 | 1021.8 | |
| 20260901190201 | 72 | 0.0 | 0.0 | 0.00 | 0.00 | 0.00 | 59 | 1022.0 | |
| 20260901184603 | 72 | 0.0 | 0.0 | 0.00 | 0.00 | 0.00 | 58 | 1022.0 | |
| 20260901183007 | 73 | 0.0 | 0.0 | 0.00 | 0.00 | 0.00 | 57 | 1022.2 | |
| 20260901181407 | 72 | 0.0 | 0.0 | 0.00 | 0.00 | 0.00 | 58 | 1022.0 | |
| 20260901175808 | 71 | 0.0 | 0.0 | 0.00 | 0.00 | 0.00 | 59 | 1022.2 | |
| 20260901174210 | 71 | 0.0 | 0.0 | 0.00 | 0.00 | 0.00 | 59 | 1022.4 | |
| 20260901172612 | 75 | 0.0 | 0.0 | 0.00 | 0.00 | 0.00 | 53 | 1022.0 | |
| 20260901171019 | 73 | 0.0 | 0.0 | 0.00 | 0.00 | 0.00 | 54 | 1022.5 | |
| 20260901171014 | 73 | 0.0 | 0.0 | 0.00 | 0.00 | 0.00 | 54 | 1022.5 | |
| 20260901165417 | 77 | 0.0 | 0.0 | 0.00 | 0.00 | 0.00 | 50 | 1021.9 | |
| 20260901163818 | 75 | 0.0 | 0.0 | 0.00 | 0.00 | 0.00 | 53 | 1021.8 | |
| 20260901162220 | 73 | 0.0 | 0.0 | 0.00 | 0.00 | 0.00 | 56 | 1022.2 | |
| 20260901160623 | 73 | 0.0 | 0.0 | 0.00 | 0.00 | 0.00 | 57 | 1022.1 | |
| 20260901155028 | 73 | 0.0 | 0.0 | 0.00 | 0.00 | 0.00 | 56 | 1022.0 | |
| 20260901155024 | 73 | 0.0 | 0.0 | 0.00 | 0.00 | 0.00 | 56 | 1022.0 | |
| 20260901153426 | 73 | 0.0 | 0.0 | 0.00 | 0.00 | 0.00 | 56 | 1022.0 | |
| 20260901151828 | 76 | 0.0 | 0.0 | 0.00 | 0.00 | 0.00 | 53 | 1021.8 | |
| 20260901150230 | 77 | 0.0 | 0.0 | 0.00 | 0.00 | 0.00 | 51 | 1021.4 | |
| 20260901144632 | 74 | 0.0 | 0.0 | 0.00 | 0.00 | 0.00 | 54 | 1022.1 | |
| 20260901143034 | 74 | 0.0 | 0.0 | 0.00 | 0.00 | 0.00 | 53 | 1022.3 | |
| 20260901141436 | 76 | 0.0 | 0.0 | 0.00 | 0.00 | 0.00 | 48 | 1022.7 | |
| 20260901135838 | 76 | 0.0 | 0.0 | 0.00 | 0.00 | 0.00 | 49 | 1022.3 | |
| 20260901134240 | 75 | 0.0 | 0.0 | 0.00 | 0.00 | 0.00 | 50 | 1022.8 | |
| 20260901132642 | 72 | 0.0 | 0.0 | 0.00 | 0.00 | 0.00 | 55 | 1022.6 | |
| 20260901131044 | 76 | 0.0 | 0.0 | 0.00 | 0.00 | 0.00 | 50 | 1022.1 | |
| 20260901125447 | 76 | 0.0 | 0.0 | 0.00 | 0.00 | 0.00 | 49 | 1022.4 | |
| 20260901123848 | 74 | 0.0 | 0.0 | 0.00 | 0.00 | 0.00 | 52 | 1022.6 | |
| 20260901122250 | 73 | 0.0 | 0.0 | 0.00 | 0.00 | 0.00 | 53 | 1022.7 | |
| 20260901120652 | 72 | 0.0 | 0.0 | 0.00 | 0.00 | 0.00 | 53 | 1023.0 | |
| 20260901115054 | 75 | 0.0 | 0.0 | 0.00 | 0.00 | 0.00 | 51 | 1022.4 | |
| 20260901113456 | 73 | 0.0 | 0.0 | 0.00 | 0.00 | 0.00 | 52 | 1022.9 | |
| 20260901111858 | 73 | 0.0 | 0.0 | 0.00 | 0.00 | 0.00 | 53 | 1022.3 | |
| 20260901110300 | 72 | 0.0 | 0.0 | 0.00 | 0.00 | 0.00 | 55 | 1022.6 | |
| 20260901104702 | 73 | 0.0 | 0.0 | 0.00 | 0.00 | 0.00 | 53 | 1022.6 | |
| 20260901103104 | 71 | 0.0 | 0.0 | 0.00 | 0.00 | 0.00 | 55 | 1022.6 | |
| 20260901101506 | 72 | 0.0 | 0.0 | 0.00 | 0.00 | 0.00 | 55 | 1022.4 |